Terminal Aerodrome Forecast
Issued by NWS

Home | Current Version | Previous Version | Text Only | Print | Product List | Glossary On
Versions: 1 2 3 4 5 6 7 8 9 10 11 12 13 14 15 16
410
FTUS43 KABR 290204 AAA
TAFPIR
TAF AMD
KPIR 290204Z 2902/2924 VRB03KT P6SM VCTS SCT050 BKN090CB BKN120
      TEMPO 2902/2903 34013G21KT -SHRA BKN050 OVC090
     FM290300 VRB04KT P6SM BKN100
     FM290700 30008KT P6SM FEW150
     FM291600 VRB06KT P6SM SCT250=

USA.gov is the U.S. government's official web portal to all federal, state and local government web resources and services.